Scroll down
FLIGHT INFORMATION
Etihad Airways

ETD902

At Arrival Gate

KORD
 EDDF
DATE: 2020-12-05
GATE: 22
GATE DEPARTURE: 06:16
TAKEOFF: 06:34
DATE: 2020-12-05
GATE:  -
LANDING: 14:08
GATE ARRIVAL: 14:15
FLIGHT DATA
Crew: 
Speed: 
903 kph
Altitude: 
35,031 ft
Stage Length: 
6,970.9 km
Block Time: 
7.9 hrs
Flight Time: 
7.6 hrs
Fuel Used: 
58,004 kg
Cleared Route: 
TRACK DATA
50,000 ft 1,000 kts
AIRCRAFT INFO AND CUMULATIVE STATS
Aircraft Type: 
B77LF
Registration: 
SELCAL: 
GPAR
MSN/LN: 
39682 / 939
Operator: 
Total Flights: 
2
Total Block Time: 
17.2 hrs
Total Flight Time: 
16.5 hrs
Total Fuel Used: 
130,874 kg
DATALINK LOG | Newest first | Current as of: 2023-01-30 09:07:15
LABEL SEQUENCE CONTENT Dn/Up
QD405614:15 21.9▼ Dn
QC353614:08▼ Dn
2U0910EDDF 060150Z 03007KT 9999 -RA FEW020 OVC029 03/01 Q0999 R25L/29//95 R25C/29//95 R25R/////// R18/29//95 NOSIG▲ Up
2S0910EDDF▼ Dn
2U2958KORD 052051Z 02006KT 10SM BKN033 04/M03 A3013 RMK AO2 SLP208 T00441033 56014▲ Up
2S2958KORD▼ Dn
QB003306:34▼ Dn
QA404406:16 149.9▼ Dn
A33349CLEARED TO EDDF VIA DUFEE ELX FNT Q822 GONZZ SYR NIPPY Q29 CABCI MIILS RIKAL NATZ BEXET MORAG KONAN UL607 SPI T180 UNOKO UNOK1D. SQUAWK 5624.▲ Up
2U3346KORD 051802Z 03007KT 10SM BKN033 BKN200 05/M03 A3017 RMK AO2 T00501028▲ Up
2S3345KORD▼ Dn
Q03201[LINK ACK]▲ Up
Q03201[LINK TEST]▼ Dn
QA295906:05 0▼ Dn


AIRCRAFT HISTORY
FLIGHT DATE FLIGHT NO. ORIGIN DESTINATION CLEARED ROUTE BLOCK TIME FLIGHT TIME FUEL USED PILOT
2020-12-05ETD902KORD EDDF 7.9 hrs7.6 hrs127,878 lbMichael Roth
2020-12-04ETD901EDDF KORD 9.3 hrs8.9 hrs160,649 lbMichael Roth